Time;durP1;ratioP1;P1;durP2;ratioP2;P2;SDS_P1;SDS_P2;PMS_P1;PMS_P2;Temp;Humidity;BMP_temperature;BMP_pressure;BME280_temperature;BME280_humidity;BME280_pressure;Samples;Min_cycle;Max_cycle;Signal;HPM_P1;HPM_P2
2022/11/27 00:01:08;;;;;;;27.00;14.43;;;;;;;;;;5112890;28;20040;-91
2022/11/27 00:03:36;;;;;;;22.65;13.55;;;;;;;;;;5112896;28;20051;-92
2022/11/27 00:06:03;;;;;;;22.40;13.32;;;;;;;;;;5112968;28;20043;-91
2022/11/27 00:08:30;;;;;;;23.10;12.60;;;;;;;;;;5113722;28;20059;-91
2022/11/27 00:11:03;;;;;;;20.83;12.63;;;;;;;;;;5113179;28;20047;-91
2022/11/27 00:13:30;;;;;;;24.80;13.75;;;;;;;;;;5123692;28;20047;-91
2022/11/27 00:15:58;;;;;;;24.88;13.77;;;;;;;;;;5115951;28;20058;-91
2022/11/27 00:18:25;;;;;;;24.63;12.18;;;;;;;;;;5112419;28;20134;-91
2022/11/27 00:20:52;;;;;;;20.88;12.57;;;;;;;;;;5112700;28;20040;-91
2022/11/27 00:23:20;;;;;;;22.17;12.10;;;;;;;;;;5112442;28;20075;-91
2022/11/27 00:25:53;;;;;;;28.80;13.40;;;;;;;;;;5112780;28;20052;-91
2022/11/27 00:28:20;;;;;;;23.65;12.20;;;;;;;;;;5112562;28;20415;-91
2022/11/27 00:30:48;;;;;;;23.85;12.88;;;;;;;;;;5113517;28;20039;-91
2022/11/27 00:33:15;;;;;;;24.05;13.57;;;;;;;;;;5112371;28;20048;-91
2022/11/27 00:35:42;;;;;;;24.08;12.23;;;;;;;;;;5112362;28;20384;-90
2022/11/27 00:38:09;;;;;;;18.50;11.45;;;;;;;;;;5116340;28;20043;-91
2022/11/27 00:40:36;;;;;;;24.63;11.75;;;;;;;;;;5117209;28;20059;-90
2022/11/27 00:43:04;;;;;;;23.45;11.27;;;;;;;;;;5117447;28;20396;-90
2022/11/27 00:45:31;;;;;;;23.77;12.15;;;;;;;;;;5115856;28;20048;-91
2022/11/27 00:47:58;;;;;;;20.83;11.35;;;;;;;;;;5115995;28;20515;-90
2022/11/27 00:50:25;;;;;;;23.80;11.05;;;;;;;;;;5115741;28;20055;-91
2022/11/27 00:52:52;;;;;;;26.67;11.52;;;;;;;;;;5116010;28;20047;-90
2022/11/27 00:55:20;;;;;;;20.90;11.60;;;;;;;;;;5116704;28;20047;-90
2022/11/27 00:57:47;;;;;;;22.55;12.38;;;;;;;;;;5116290;28;20048;-90
2022/11/27 01:00:14;;;;;;;18.13;11.43;;;;;;;;;;5116105;28;20051;-89
2022/11/27 01:02:41;;;;;;;22.45;11.95;;;;;;;;;;5115464;28;20055;-90
2022/11/27 01:05:09;;;;;;;22.63;11.77;;;;;;;;;;5118240;28;20101;-91
2022/11/27 01:07:36;;;;;;;24.98;11.90;;;;;;;;;;5115758;28;20055;-88
2022/11/27 01:10:03;;;;;;;18.25;10.73;;;;;;;;;;5115610;28;20126;-91
2022/11/27 01:12:31;;;;;;;17.02;10.48;;;;;;;;;;5115800;28;20058;-90
2022/11/27 01:14:58;;;;;;;19.23;10.57;;;;;;;;;;5116659;28;20462;-90
2022/11/27 01:17:25;;;;;;;24.77;12.23;;;;;;;;;;5116421;28;20066;-90
2022/11/27 01:19:53;;;;;;;19.65;11.32;;;;;;;;;;5115969;28;20241;-90
2022/11/27 01:22:20;;;;;;;21.02;11.38;;;;;;;;;;5115408;28;20407;-90
2022/11/27 01:24:47;;;;;;;22.30;11.55;;;;;;;;;;5116595;28;20054;-90
2022/11/27 01:27:14;;;;;;;26.75;12.68;;;;;;;;;;5121472;28;20091;-90
2022/11/27 01:29:42;;;;;;;22.95;12.55;;;;;;;;;;5124207;28;20043;-90
2022/11/27 01:32:09;;;;;;;21.95;11.73;;;;;;;;;;5115342;28;20058;-90
2022/11/27 01:34:36;;;;;;;22.15;11.95;;;;;;;;;;5115403;28;20043;-90
2022/11/27 01:37:04;;;;;;;24.52;13.07;;;;;;;;;;5115567;28;20453;-90
2022/11/27 01:39:31;;;;;;;19.80;11.20;;;;;;;;;;5115005;28;20056;-90
2022/11/27 01:41:58;;;;;;;21.15;9.70;;;;;;;;;;5115027;28;20054;-90
2022/11/27 01:44:26;;;;;;;21.17;10.63;;;;;;;;;;5114905;28;20048;-90
2022/11/27 01:46:55;;;;;;;17.45;10.40;;;;;;;;;;5135729;27;20055;-90
2022/11/27 01:49:30;;;;;;;29.52;11.23;;;;;;;;;;5135589;27;20035;-91
2022/11/27 01:52:00;;;;;;;28.95;11.93;;;;;;;;;;5118465;27;20055;-90
2022/11/27 01:54:41;;;;;;;27.42;13.18;;;;;;;;;;5118437;27;20102;-90
2022/11/27 01:57:15;;;;;;;21.75;10.32;;;;;;;;;;5118580;27;20092;-90
2022/11/27 01:59:42;;;;;;;17.95;11.57;;;;;;;;;;5118263;27;20491;-90
2022/11/27 02:02:09;;;;;;;24.73;11.27;;;;;;;;;;5136110;27;20416;-90
2022/11/27 02:04:36;;;;;;;30.17;12.25;;;;;;;;;;5118340;27;20047;-87
2022/11/27 02:07:04;;;;;;;23.63;11.80;;;;;;;;;;5118560;27;20054;-90
2022/11/27 02:09:32;;;;;;;21.13;11.43;;;;;;;;;;5118450;27;20047;-90
2022/11/27 02:12:14;;;;;;;29.80;12.85;;;;;;;;;;5118164;27;20087;-88
2022/11/27 02:14:54;;;;;;;23.13;12.40;;;;;;;;;;5118064;27;20051;-88
2022/11/27 02:17:40;;;;;;;28.85;11.88;;;;;;;;;;5118274;27;20131;-91
2022/11/27 02:20:13;;;;;;;29.40;11.52;;;;;;;;;;5118082;27;20047;-91
2022/11/27 02:22:59;;;;;;;23.25;11.98;;;;;;;;;;5117723;27;20047;-91
2022/11/27 02:25:31;;;;;;;22.30;11.88;;;;;;;;;;5117698;27;20051;-91
2022/11/27 02:28:21;;;;;;;19.95;10.55;;;;;;;;;;5117876;27;20039;-90
2022/11/27 02:30:52;;;;;;;23.65;11.95;;;;;;;;;;5118059;27;20051;-90
2022/11/27 02:33:20;;;;;;;21.85;11.30;;;;;;;;;;5117928;27;20059;-91
2022/11/27 02:35:55;;;;;;;25.10;11.15;;;;;;;;;;5118034;27;20039;-91
2022/11/27 02:38:40;;;;;;;23.15;10.88;;;;;;;;;;5122596;27;20053;-90
2022/11/27 02:41:40;;;;;;;16.73;9.40;;;;;;;;;;5129733;27;20054;-89
2022/11/27 02:44:08;;;;;;;26.75;11.02;;;;;;;;;;5070289;27;20055;-91
2022/11/27 02:46:36;;;;;;;21.55;10.40;;;;;;;;;;5113810;28;20047;-91
2022/11/27 02:49:07;;;;;;;27.33;12.02;;;;;;;;;;5114090;28;20074;-91
2022/11/27 02:51:43;;;;;;;30.15;12.65;;;;;;;;;;5113898;28;20054;-91
2022/11/27 02:54:13;;;;;;;33.70;13.32;;;;;;;;;;5113745;28;20048;-90
2022/11/27 02:56:41;;;;;;;21.17;12.30;;;;;;;;;;5113868;28;20061;-89
2022/11/27 02:59:10;;;;;;;24.85;11.05;;;;;;;;;;5113482;28;20046;-88
2022/11/27 03:01:42;;;;;;;23.48;11.52;;;;;;;;;;5113728;28;20055;-89
2022/11/27 03:04:12;;;;;;;24.27;10.95;;;;;;;;;;5113646;28;20105;-92
2022/11/27 03:06:44;;;;;;;16.73;9.85;;;;;;;;;;5113379;28;20047;-90
2022/11/27 03:09:22;;;;;;;21.48;10.73;;;;;;;;;;5113098;28;20051;-91
2022/11/27 03:11:49;;;;;;;18.92;9.02;;;;;;;;;;5114546;28;20044;-91
2022/11/27 03:14:19;;;;;;;18.48;9.73;;;;;;;;;;5114356;28;20387;-91
2022/11/27 03:16:59;;;;;;;18.95;9.30;;;;;;;;;;5113407;28;20039;-91
2022/11/27 03:19:56;;;;;;;23.45;9.73;;;;;;;;;;5113559;28;20130;-92
2022/11/27 03:22:25;;;;;;;16.25;8.93;;;;;;;;;;5096555;28;20051;-89
2022/11/27 03:24:53;;;;;;;22.00;9.23;;;;;;;;;;5113611;28;20058;-89
2022/11/27 03:27:28;;;;;;;20.58;9.75;;;;;;;;;;5113563;28;20051;-92
2022/11/27 03:29:57;;;;;;;18.92;10.05;;;;;;;;;;5113304;28;20056;-92
2022/11/27 03:32:26;;;;;;;23.38;10.77;;;;;;;;;;5113454;28;20059;-92
2022/11/27 03:34:53;;;;;;;18.30;9.55;;;;;;;;;;5113351;28;20058;-92
2022/11/27 03:37:21;;;;;;;18.73;10.38;;;;;;;;;;5115710;28;20071;-92
2022/11/27 03:39:48;;;;;;;22.80;9.27;;;;;;;;;;5113724;28;20044;-92
2022/11/27 03:42:34;;;;;;;19.25;8.68;;;;;;;;;;5113205;28;20052;-92
2022/11/27 03:45:01;;;;;;;16.38;8.15;;;;;;;;;;5113248;28;20064;-91
2022/11/27 03:47:29;;;;;;;18.27;9.32;;;;;;;;;;5113269;28;20488;-92
2022/11/27 03:49:56;;;;;;;22.80;9.57;;;;;;;;;;5113236;28;20537;-92
2022/11/27 03:52:27;;;;;;;19.98;9.15;;;;;;;;;;5113314;28;20055;-92
2022/11/27 03:55:00;;;;;;;18.25;8.32;;;;;;;;;;5113991;28;20047;-92
2022/11/27 03:57:40;;;;;;;13.20;8.10;;;;;;;;;;5126898;28;20047;-90
2022/11/27 04:00:08;;;;;;;16.55;8.52;;;;;;;;;;5113014;28;20056;-89
2022/11/27 04:02:50;;;;;;;15.73;8.25;;;;;;;;;;5112892;28;20055;-90
2022/11/27 04:05:17;;;;;;;17.83;8.50;;;;;;;;;;5112832;28;20118;-90
2022/11/27 04:07:44;;;;;;;17.55;10.05;;;;;;;;;;5113182;28;20055;-89
2022/11/27 04:10:13;;;;;;;18.23;9.68;;;;;;;;;;5112636;28;20097;-90
2022/11/27 04:12:40;;;;;;;19.58;9.50;;;;;;;;;;5116163;28;20055;-90
2022/11/27 04:15:07;;;;;;;18.70;9.55;;;;;;;;;;5116988;28;20376;-90
2022/11/27 04:17:35;;;;;;;19.25;9.65;;;;;;;;;;5116771;28;20062;-91
2022/11/27 04:20:02;;;;;;;23.15;10.43;;;;;;;;;;5116962;28;20043;-90
2022/11/27 04:22:30;;;;;;;17.70;9.75;;;;;;;;;;5116661;28;20419;-90
2022/11/27 04:24:57;;;;;;;16.33;8.77;;;;;;;;;;5116667;28;20414;-93
2022/11/27 04:27:24;;;;;;;19.15;9.45;;;;;;;;;;5116762;28;20054;-90
2022/11/27 04:29:52;;;;;;;19.98;10.57;;;;;;;;;;5116706;28;20097;-93
2022/11/27 04:32:19;;;;;;;26.08;10.50;;;;;;;;;;5116680;28;20480;-93
2022/11/27 04:34:46;;;;;;;16.30;9.75;;;;;;;;;;5116482;28;20052;-90
2022/11/27 04:37:13;;;;;;;24.30;9.68;;;;;;;;;;5116544;28;20044;-90
2022/11/27 04:39:40;;;;;;;19.02;10.07;;;;;;;;;;5116537;28;20058;-93
2022/11/27 04:42:08;;;;;;;21.77;9.32;;;;;;;;;;5116292;28;20069;-93
2022/11/27 04:44:35;;;;;;;17.92;8.85;;;;;;;;;;5116510;27;20515;-91
2022/11/27 04:47:03;;;;;;;17.73;8.95;;;;;;;;;;5119428;27;20050;-90
2022/11/27 04:49:30;;;;;;;16.90;9.43;;;;;;;;;;5119692;27;20136;-91
2022/11/27 04:51:57;;;;;;;18.50;8.38;;;;;;;;;;5119872;27;20049;-93
2022/11/27 04:54:25;;;;;;;19.15;8.93;;;;;;;;;;5119740;27;20043;-92
2022/11/27 04:56:52;;;;;;;14.13;7.95;;;;;;;;;;5119608;27;20047;-93
2022/11/27 04:59:19;;;;;;;18.88;8.70;;;;;;;;;;5119767;27;20051;-93
2022/11/27 05:01:47;;;;;;;18.00;8.38;;;;;;;;;;5119109;27;20047;-93
2022/11/27 05:04:14;;;;;;;16.15;8.35;;;;;;;;;;5119424;27;20073;-93
2022/11/27 05:06:41;;;;;;;18.52;8.40;;;;;;;;;;5119554;27;20049;-93
2022/11/27 05:09:08;;;;;;;16.17;7.90;;;;;;;;;;5120910;27;20051;-93
2022/11/27 05:11:36;;;;;;;15.07;8.52;;;;;;;;;;5134684;27;20047;-93
2022/11/27 05:14:19;;;;;;;14.93;8.10;;;;;;;;;;5119202;27;20066;-93
2022/11/27 05:16:48;;;;;;;29.15;10.07;;;;;;;;;;5119388;27;20045;-93
2022/11/27 05:19:16;;;;;;;14.57;8.80;;;;;;;;;;5119157;27;20074;-93
2022/11/27 05:21:44;;;;;;;15.13;8.38;;;;;;;;;;5119079;27;20417;-93
2022/11/27 05:24:12;;;;;;;15.10;8.15;;;;;;;;;;5118778;27;20055;-93
2022/11/27 05:26:40;;;;;;;14.88;9.80;;;;;;;;;;5119142;27;20047;-93
2022/11/27 05:29:07;;;;;;;20.02;9.52;;;;;;;;;;5118997;27;20051;-93
2022/11/27 05:31:35;;;;;;;21.15;9.13;;;;;;;;;;5118955;27;20563;-93
2022/11/27 05:34:03;;;;;;;16.52;9.63;;;;;;;;;;5119174;27;20129;-94
2022/11/27 05:36:30;;;;;;;17.25;9.25;;;;;;;;;;5119137;27;20074;-93
2022/11/27 05:38:57;;;;;;;21.88;9.70;;;;;;;;;;5119217;27;20428;-93
2022/11/27 05:41:25;;;;;;;14.93;8.23;;;;;;;;;;5119542;27;20057;-93
2022/11/27 05:43:52;;;;;;;22.00;8.98;;;;;;;;;;5119868;27;20595;-93
2022/11/27 05:46:20;;;;;;;20.27;9.85;;;;;;;;;;5124012;27;20138;-93
2022/11/27 05:48:47;;;;;;;17.33;9.32;;;;;;;;;;5141693;27;20099;-92
2022/11/27 05:51:15;;;;;;;18.00;9.82;;;;;;;;;;5134514;27;20137;-93
2022/11/27 05:53:42;;;;;;;15.93;8.25;;;;;;;;;;5119839;27;20057;-93
2022/11/27 05:56:11;;;;;;;14.57;8.45;;;;;;;;;;5118991;27;20047;-93
2022/11/27 05:58:39;;;;;;;16.15;7.95;;;;;;;;;;5118237;27;20070;-93
2022/11/27 06:01:07;;;;;;;14.55;8.23;;;;;;;;;;5118390;27;20054;-92
2022/11/27 06:03:34;;;;;;;13.73;8.10;;;;;;;;;;5118144;27;20081;-93
2022/11/27 06:06:12;;;;;;;17.38;9.05;;;;;;;;;;5118165;27;20069;-93
2022/11/27 06:08:40;;;;;;;19.52;8.40;;;;;;;;;;5118268;27;20043;-93
2022/11/27 06:11:08;;;;;;;16.95;8.07;;;;;;;;;;5118287;27;20047;-93
2022/11/27 06:13:35;;;;;;;15.30;8.77;;;;;;;;;;5118079;27;20051;-93
2022/11/27 06:16:11;;;;;;;20.98;9.27;;;;;;;;;;5118229;27;20077;-93
2022/11/27 06:18:38;;;;;;;19.25;8.43;;;;;;;;;;5118197;27;20055;-93
2022/11/27 06:21:10;;;;;;;26.38;8.60;;;;;;;;;;5117968;27;20059;-93
2022/11/27 06:23:37;;;;;;;16.17;7.95;;;;;;;;;;5121862;27;20054;-93
2022/11/27 06:26:09;;;;;;;18.08;8.05;;;;;;;;;;5131552;27;20039;-93
2022/11/27 06:28:37;;;;;;;15.90;8.10;;;;;;;;;;5117778;27;20054;-93
2022/11/27 06:31:05;;;;;;;20.60;7.95;;;;;;;;;;5117804;27;20040;-93
2022/11/27 06:33:33;;;;;;;17.17;7.95;;;;;;;;;;5117184;28;20047;-93
2022/11/27 06:36:00;;;;;;;19.88;8.93;;;;;;;;;;5117164;27;20483;-93
2022/11/27 06:38:28;;;;;;;15.85;8.88;;;;;;;;;;5117512;27;20072;-93
2022/11/27 06:40:55;;;;;;;30.95;11.05;;;;;;;;;;5117693;27;20066;-93
2022/11/27 06:43:22;;;;;;;17.63;9.55;;;;;;;;;;5117352;27;20137;-93
2022/11/27 06:45:57;;;;;;;24.35;10.73;;;;;;;;;;5117374;27;20051;-93
2022/11/27 06:48:24;;;;;;;26.27;9.38;;;;;;;;;;5117599;27;20050;-93
2022/11/27 06:50:51;;;;;;;18.02;10.10;;;;;;;;;;5117594;27;20051;-94
2022/11/27 06:53:19;;;;;;;20.73;10.00;;;;;;;;;;5117727;27;20043;-93
2022/11/27 06:55:46;;;;;;;24.75;11.93;;;;;;;;;;5117432;27;20051;-94
2022/11/27 06:58:13;;;;;;;22.52;10.75;;;;;;;;;;5117686;27;20043;-94
2022/11/27 07:00:41;;;;;;;23.52;11.13;;;;;;;;;;5117297;27;20061;-94
2022/11/27 07:03:08;;;;;;;20.52;10.30;;;;;;;;;;5117652;27;20100;-94
2022/11/27 07:05:36;;;;;;;30.95;11.48;;;;;;;;;;5117835;27;20427;-94
2022/11/27 07:08:03;;;;;;;24.67;10.63;;;;;;;;;;5117512;27;20398;-94
2022/11/27 07:10:33;;;;;;;35.15;13.50;;;;;;;;;;5117473;27;20058;-93
2022/11/27 07:13:00;;;;;;;31.40;14.90;;;;;;;;;;5117393;27;20065;-94
2022/11/27 07:15:27;;;;;;;29.17;13.27;;;;;;;;;;5117098;27;20053;-94
2022/11/27 07:17:54;;;;;;;23.52;10.60;;;;;;;;;;5117679;27;20392;-94
2022/11/27 07:20:21;;;;;;;20.42;9.88;;;;;;;;;;5114358;28;20053;-94
2022/11/27 07:22:49;;;;;;;24.65;10.25;;;;;;;;;;5095554;28;20043;-93
2022/11/27 07:25:16;;;;;;;27.55;12.18;;;;;;;;;;5096900;28;20069;-93
2022/11/27 07:27:49;;;;;;;19.55;10.75;;;;;;;;;;5096713;28;20404;-93
2022/11/27 07:30:16;;;;;;;33.80;13.25;;;;;;;;;;5101603;28;20108;-93
2022/11/27 07:32:44;;;;;;;31.10;12.45;;;;;;;;;;5097371;28;20044;-93
2022/11/27 07:35:11;;;;;;;26.42;11.60;;;;;;;;;;5096118;28;20111;-94
2022/11/27 07:37:38;;;;;;;24.05;12.07;;;;;;;;;;5098662;28;20053;-94
2022/11/27 07:40:08;;;;;;;24.38;12.73;;;;;;;;;;5112180;28;20139;-94
2022/11/27 07:42:35;;;;;;;19.52;12.45;;;;;;;;;;5096514;28;20484;-93
2022/11/27 07:45:06;;;;;;;27.60;13.63;;;;;;;;;;5094990;28;20123;-93
2022/11/27 07:47:33;;;;;;;33.45;17.50;;;;;;;;;;5095297;28;20044;-94
2022/11/27 07:50:00;;;;;;;34.85;16.33;;;;;;;;;;5095778;28;20055;-93
2022/11/27 07:52:27;;;;;;;27.45;15.75;;;;;;;;;;5095958;28;20088;-94
2022/11/27 07:54:55;;;;;;;35.47;21.67;;;;;;;;;;5095474;28;20506;-94
2022/11/27 07:57:22;;;;;;;37.05;20.73;;;;;;;;;;5095601;28;20050;-94
2022/11/27 07:59:49;;;;;;;62.42;35.60;;;;;;;;;;5095757;28;20047;-94
2022/11/27 08:02:16;;;;;;;37.20;19.60;;;;;;;;;;5095542;28;20051;-93
2022/11/27 08:04:43;;;;;;;50.33;27.98;;;;;;;;;;5095419;28;20443;-94
2022/11/27 08:07:11;;;;;;;48.25;25.73;;;;;;;;;;5096355;28;20147;-94
2022/11/27 08:09:39;;;;;;;50.83;24.80;;;;;;;;;;5095764;28;20052;-96
2022/11/27 08:12:06;;;;;;;55.85;29.60;;;;;;;;;;5095861;28;20059;-94
2022/11/27 08:14:34;;;;;;;106.80;61.20;;;;;;;;;;5095710;28;20053;-94
2022/11/27 08:17:01;;;;;;;65.20;34.30;;;;;;;;;;5094970;28;20056;-94
2022/11/27 08:19:29;;;;;;;39.45;22.63;;;;;;;;;;5095590;28;20043;-94
2022/11/27 08:21:57;;;;;;;34.55;17.10;;;;;;;;;;5095720;28;20060;-95
2022/11/27 08:24:24;;;;;;;37.72;20.52;;;;;;;;;;5095325;28;20047;-94
2022/11/27 08:26:51;;;;;;;27.45;13.85;;;;;;;;;;5095603;28;20069;-94
2022/11/27 08:29:18;;;;;;;33.60;15.70;;;;;;;;;;5095377;28;20463;-94
2022/11/27 08:31:46;;;;;;;33.55;15.63;;;;;;;;;;5095436;28;20058;-94
2022/11/27 08:34:13;;;;;;;27.55;16.05;;;;;;;;;;5096292;28;20073;-95
2022/11/27 08:36:40;;;;;;;24.95;14.93;;;;;;;;;;5095741;28;20043;-94
2022/11/27 08:39:07;;;;;;;30.35;15.35;;;;;;;;;;5096685;28;20048;-94
2022/11/27 08:41:35;;;;;;;33.05;15.80;;;;;;;;;;5096722;28;20051;-94
2022/11/27 08:44:02;;;;;;;37.75;20.67;;;;;;;;;;5097633;28;20442;-94
2022/11/27 08:46:35;;;;;;;39.00;20.42;;;;;;;;;;5096083;28;20060;-94
2022/11/27 08:49:02;;;;;;;34.88;22.17;;;;;;;;;;5096220;28;20054;-94
2022/11/27 08:51:29;;;;;;;42.30;21.42;;;;;;;;;;5098455;28;20048;-94
2022/11/27 08:53:57;;;;;;;38.17;22.42;;;;;;;;;;5103635;28;20061;-94
2022/11/27 08:56:25;;;;;;;48.35;22.90;;;;;;;;;;5104873;28;20134;-94
2022/11/27 08:58:52;;;;;;;46.35;22.58;;;;;;;;;;5101548;28;20051;-94
2022/11/27 09:01:20;;;;;;;47.70;23.08;;;;;;;;;;5113401;28;20061;-94
2022/11/27 09:03:48;;;;;;;44.55;22.35;;;;;;;;;;5115099;28;20043;-94
2022/11/27 09:06:17;;;;;;;34.97;19.98;;;;;;;;;;5099014;28;20051;-95
2022/11/27 09:08:45;;;;;;;32.92;17.33;;;;;;;;;;5099015;28;20061;-95
2022/11/27 09:11:13;;;;;;;54.65;25.20;;;;;;;;;;5098404;28;20483;-95
2022/11/27 09:13:41;;;;;;;48.10;23.50;;;;;;;;;;5098318;28;20570;-95
2022/11/27 09:16:09;;;;;;;90.22;26.13;;;;;;;;;;5098034;28;20055;-95
2022/11/27 09:18:37;;;;;;;59.08;24.52;;;;;;;;;;5098346;28;20047;-95
2022/11/27 09:21:06;;;;;;;57.80;26.25;;;;;;;;;;5098585;28;20104;-94
2022/11/27 09:23:33;;;;;;;54.10;24.23;;;;;;;;;;5097886;28;20044;-95
2022/11/27 09:26:02;;;;;;;47.05;19.85;;;;;;;;;;5098403;28;20055;-95
2022/11/27 09:28:29;;;;;;;47.97;25.00;;;;;;;;;;5098270;28;20040;-90
2022/11/27 09:30:58;;;;;;;58.40;27.92;;;;;;;;;;5098275;28;20093;-94
2022/11/27 09:33:26;;;;;;;57.05;24.98;;;;;;;;;;5098213;28;20062;-94
2022/11/27 09:35:54;;;;;;;52.40;25.55;;;;;;;;;;5098049;28;20475;-92
2022/11/27 09:38:23;;;;;;;52.60;24.60;;;;;;;;;;5098033;28;20106;-93
2022/11/27 09:40:52;;;;;;;75.43;38.10;;;;;;;;;;5097705;28;20043;-90
2022/11/27 09:43:26;;;;;;;62.15;32.13;;;;;;;;;;5097626;28;20044;-92
2022/11/27 09:45:56;;;;;;;45.83;23.52;;;;;;;;;;5097307;28;20056;-90
2022/11/27 09:48:31;;;;;;;46.70;22.80;;;;;;;;;;5097739;28;20043;-90
2022/11/27 09:51:01;;;;;;;38.08;18.60;;;;;;;;;;5097465;28;20059;-91
2022/11/27 09:53:32;;;;;;;38.65;20.05;;;;;;;;;;5097676;28;20066;-90
2022/11/27 09:56:02;;;;;;;38.65;17.50;;;;;;;;;;5097417;28;20167;-90
2022/11/27 09:58:40;;;;;;;28.75;15.95;;;;;;;;;;5097613;28;20518;-89
2022/11/27 10:01:15;;;;;;;35.33;22.25;;;;;;;;;;5097313;28;20055;-90
2022/11/27 10:03:44;;;;;;;35.50;20.20;;;;;;;;;;5097338;28;20051;-89
2022/11/27 10:06:11;;;;;;;32.22;15.57;;;;;;;;;;5097510;28;20055;-90
2022/11/27 10:08:44;;;;;;;28.05;14.07;;;;;;;;;;5102429;28;20062;-87
2022/11/27 10:11:23;;;;;;;25.90;13.68;;;;;;;;;;5104687;28;20047;-89
2022/11/27 10:13:55;;;;;;;25.67;12.35;;;;;;;;;;5096865;28;20044;-89
2022/11/27 10:16:27;;;;;;;18.70;11.00;;;;;;;;;;5096797;28;20059;-88
2022/11/27 10:18:56;;;;;;;18.95;12.73;;;;;;;;;;5096702;28;20044;-88
2022/11/27 10:21:30;;;;;;;17.15;11.10;;;;;;;;;;5096532;28;20487;-89
2022/11/27 10:23:57;;;;;;;;;;;;;;;;;;5097041;28;20051;-89
2022/11/27 10:26:28;;;;;;;18.50;9.30;;;;;;;;;;5113601;28;20271;-89
2022/11/27 10:29:06;;;;;;;13.02;8.27;;;;;;;;;;5096781;28;20051;-89
2022/11/27 10:31:36;;;;;;;15.32;8.65;;;;;;;;;;5096383;28;20055;-88
2022/11/27 10:34:17;;;;;;;14.43;9.02;;;;;;;;;;5096512;28;20047;-89
2022/11/27 10:36:47;;;;;;;18.90;9.15;;;;;;;;;;5096593;28;20044;-89
2022/11/27 10:39:39;;;;;;;13.38;9.57;;;;;;;;;;5096278;28;20139;-89
2022/11/27 10:42:10;;;;;;;15.18;7.80;;;;;;;;;;5096379;28;20062;-88
2022/11/27 10:44:39;;;;;;;11.07;5.78;;;;;;;;;;5114016;28;20139;-89
2022/11/27 10:47:09;;;;;;;9.80;6.22;;;;;;;;;;5092440;28;20079;-89
2022/11/27 10:49:40;;;;;;;9.95;5.72;;;;;;;;;;5092524;28;20067;-88
2022/11/27 10:52:15;;;;;;;8.68;4.68;;;;;;;;;;5092330;28;20506;-87
2022/11/27 10:54:43;;;;;;;7.22;5.32;;;;;;;;;;5090898;28;20051;-89
2022/11/27 10:57:29;;;;;;;6.63;4.90;;;;;;;;;;5092372;28;20052;-87
2022/11/27 11:00:09;;;;;;;6.43;3.97;;;;;;;;;;5091825;28;20040;-87
2022/11/27 11:02:37;;;;;;;6.72;4.10;;;;;;;;;;5091820;28;20063;-87
2022/11/27 11:05:17;;;;;;;6.78;3.90;;;;;;;;;;5091623;28;20048;-85
2022/11/27 11:08:13;;;;;;;6.85;4.07;;;;;;;;;;5091536;28;20089;-84
2022/11/27 11:10:49;;;;;;;6.28;3.17;;;;;;;;;;5083939;28;20055;-85
2022/11/27 11:13:18;;;;;;;7.45;3.35;;;;;;;;;;5072299;28;20045;-84
2022/11/27 11:15:51;;;;;;;3.25;2.83;;;;;;;;;;5071189;28;20499;-85
2022/11/27 11:18:27;;;;;;;5.43;3.05;;;;;;;;;;5071381;28;20504;-84
2022/11/27 11:20:56;;;;;;;7.03;3.38;;;;;;;;;;5070962;28;20062;-84
2022/11/27 11:23:25;;;;;;;5.22;3.00;;;;;;;;;;5072763;28;20045;-86
2022/11/27 11:25:53;;;;;;;4.45;3.03;;;;;;;;;;5086030;28;20052;-84
2022/11/27 11:28:21;;;;;;;4.00;2.78;;;;;;;;;;5071193;28;20067;-84
2022/11/27 11:30:53;;;;;;;3.63;2.88;;;;;;;;;;5070755;28;20053;-84
2022/11/27 11:33:20;;;;;;;5.10;2.90;;;;;;;;;;5070948;28;20052;-86
2022/11/27 11:35:52;;;;;;;4.85;2.80;;;;;;;;;;5070515;28;20405;-86
2022/11/27 11:38:23;;;;;;;5.22;3.42;;;;;;;;;;5072616;28;20044;-85
2022/11/27 11:40:59;;;;;;;6.53;3.08;;;;;;;;;;5071692;28;20056;-85
2022/11/27 11:43:27;;;;;;;3.42;2.90;;;;;;;;;;5073252;28;20494;-85
2022/11/27 11:45:55;;;;;;;4.47;3.35;;;;;;;;;;5071319;28;20060;-85
2022/11/27 11:48:24;;;;;;;5.85;3.28;;;;;;;;;;5071702;28;20044;-86
2022/11/27 11:50:57;;;;;;;4.32;3.13;;;;;;;;;;5071221;28;20060;-85
2022/11/27 11:53:31;;;;;;;5.57;2.83;;;;;;;;;;5071517;28;20059;-86
2022/11/27 11:56:17;;;;;;;4.55;3.03;;;;;;;;;;5071590;28;20052;-85
2022/11/27 11:58:53;;;;;;;5.22;3.15;;;;;;;;;;5072584;28;20049;-86
2022/11/27 12:01:40;;;;;;;5.88;3.40;;;;;;;;;;5071431;28;20040;-86
2022/11/27 12:04:13;;;;;;;4.13;3.47;;;;;;;;;;5072676;28;20090;-85
2022/11/27 12:06:44;;;;;;;5.88;3.20;;;;;;;;;;5072819;28;20048;-86
2022/11/27 12:09:17;;;;;;;7.40;3.83;;;;;;;;;;5071677;28;20052;-86
2022/11/27 12:11:47;;;;;;;7.63;3.20;;;;;;;;;;5071320;28;20056;-86
2022/11/27 12:14:35;;;;;;;4.93;3.30;;;;;;;;;;5071737;28;20049;-86
2022/11/27 12:17:18;;;;;;;7.43;3.78;;;;;;;;;;5071495;28;20056;-86
2022/11/27 12:19:51;;;;;;;6.25;3.95;;;;;;;;;;5071248;28;20530;-86
2022/11/27 12:22:29;;;;;;;5.70;3.53;;;;;;;;;;5071678;28;20062;-86
2022/11/27 12:25:02;;;;;;;4.38;3.90;;;;;;;;;;5071586;28;20056;-87
2022/11/27 12:27:44;;;;;;;8.45;4.10;;;;;;;;;;5071504;28;20048;-86
2022/11/27 12:30:17;;;;;;;4.13;3.25;;;;;;;;;;5071731;28;20158;-86
2022/11/27 12:33:03;;;;;;;4.00;3.28;;;;;;;;;;5073872;28;20080;-87
2022/11/27 12:35:36;;;;;;;4.85;3.35;;;;;;;;;;5075394;28;20090;-86
2022/11/27 12:38:16;;;;;;;6.07;3.22;;;;;;;;;;5080596;28;20049;-87
2022/11/27 12:40:46;;;;;;;6.82;3.38;;;;;;;;;;5088226;28;20050;-86
2022/11/27 12:43:23;;;;;;;6.30;3.50;;;;;;;;;;5075446;28;20041;-86
2022/11/27 12:45:55;;;;;;;5.63;4.07;;;;;;;;;;5074901;28;20053;-86
2022/11/27 12:48:31;;;;;;;6.90;3.50;;;;;;;;;;5075269;28;20052;-86
2022/11/27 12:51:06;;;;;;;4.70;3.60;;;;;;;;;;5074842;28;20054;-86
2022/11/27 12:53:40;;;;;;;3.95;3.20;;;;;;;;;;5076055;28;20052;-86
2022/11/27 12:56:10;;;;;;;5.57;3.45;;;;;;;;;;5075124;28;20056;-87
2022/11/27 12:58:39;;;;;;;4.15;3.22;;;;;;;;;;5075135;28;20048;-86
2022/11/27 13:01:09;;;;;;;3.88;3.25;;;;;;;;;;5075937;28;20040;-86
2022/11/27 13:03:56;;;;;;;4.78;2.97;;;;;;;;;;5074910;28;20576;-86
2022/11/27 13:06:25;;;;;;;9.05;3.47;;;;;;;;;;5075584;28;20051;-86
2022/11/27 13:08:58;;;;;;;4.18;3.33;;;;;;;;;;5074642;28;20048;-86
2022/11/27 13:11:28;;;;;;;13.50;6.40;;;;;;;;;;5074478;28;20118;-86
2022/11/27 13:14:02;;;;;;;4.40;3.55;;;;;;;;;;5075610;28;20048;-86
2022/11/27 13:16:33;;;;;;;3.95;3.50;;;;;;;;;;5074986;28;20047;-87
2022/11/27 13:19:13;;;;;;;3.58;3.22;;;;;;;;;;5075924;28;20131;-86
2022/11/27 13:21:41;;;;;;;5.40;3.58;;;;;;;;;;5074478;28;20051;-86
2022/11/27 13:24:12;;;;;;;5.50;3.47;;;;;;;;;;5074400;28;20054;-87
2022/11/27 13:26:44;;;;;;;3.60;3.08;;;;;;;;;;5074081;28;20106;-86
2022/11/27 13:29:44;;;;;;;4.05;2.90;;;;;;;;;;5074385;28;20079;-86
2022/11/27 13:32:23;;;;;;;4.70;3.15;;;;;;;;;;5042338;28;20048;-86
2022/11/27 13:34:51;;;;;;;3.95;3.05;;;;;;;;;;5073742;28;20048;-86
2022/11/27 13:37:26;;;;;;;8.93;3.50;;;;;;;;;;5073890;28;20052;-86
2022/11/27 13:40:01;;;;;;;4.07;3.05;;;;;;;;;;5078829;28;20056;-87
2022/11/27 13:42:32;;;;;;;3.50;3.20;;;;;;;;;;5074125;28;20044;-87
2022/11/27 13:45:02;;;;;;;4.88;3.00;;;;;;;;;;5075667;28;20044;-87
2022/11/27 13:47:29;;;;;;;4.35;3.42;;;;;;;;;;5077534;28;20510;-86
2022/11/27 13:49:58;;;;;;;6.18;3.63;;;;;;;;;;5095352;28;20507;-86
2022/11/27 13:52:25;;;;;;;6.57;3.17;;;;;;;;;;5085203;28;20059;-86
2022/11/27 13:55:00;;;;;;;14.90;4.45;;;;;;;;;;5085379;28;20071;-87
2022/11/27 13:57:28;;;;;;;3.88;3.58;;;;;;;;;;5077310;28;20052;-87
2022/11/27 13:59:57;;;;;;;4.45;3.90;;;;;;;;;;5077014;28;20048;-88
2022/11/27 14:02:25;;;;;;;8.52;4.22;;;;;;;;;;5077381;28;20142;-87
2022/11/27 14:04:53;;;;;;;8.80;5.28;;;;;;;;;;5094962;28;20079;-87
2022/11/27 14:07:23;;;;;;;4.95;3.55;;;;;;;;;;5077319;28;20485;-87
2022/11/27 14:09:55;;;;;;;4.05;3.65;;;;;;;;;;5077213;28;20134;-85
2022/11/27 14:12:22;;;;;;;4.43;3.20;;;;;;;;;;5094581;28;20059;-87
2022/11/27 14:14:58;;;;;;;4.03;3.58;;;;;;;;;;5094704;28;20139;-87
2022/11/27 14:17:27;;;;;;;8.65;4.20;;;;;;;;;;5076844;28;20067;-86
2022/11/27 14:19:59;;;;;;;8.20;5.03;;;;;;;;;;5076840;28;20044;-87
2022/11/27 14:22:32;;;;;;;16.08;4.78;;;;;;;;;;5076794;28;20411;-87
2022/11/27 14:24:59;;;;;;;5.13;4.47;;;;;;;;;;5094630;28;20419;-87
2022/11/27 14:27:32;;;;;;;4.80;4.40;;;;;;;;;;5076893;28;20052;-87
2022/11/27 14:30:10;;;;;;;6.50;5.05;;;;;;;;;;5076916;28;20052;-86
2022/11/27 14:32:38;;;;;;;5.32;4.80;;;;;;;;;;5076554;28;20059;-86
2022/11/27 14:35:18;;;;;;;6.90;4.95;;;;;;;;;;5076393;28;20138;-86
2022/11/27 14:37:45;;;;;;;7.28;5.85;;;;;;;;;;5094167;28;20055;-86
2022/11/27 14:40:14;;;;;;;8.05;4.68;;;;;;;;;;5076311;28;20055;-86
2022/11/27 14:42:41;;;;;;;5.18;4.68;;;;;;;;;;5076311;28;20040;-87
2022/11/27 14:45:19;;;;;;;8.00;4.82;;;;;;;;;;5076114;28;20508;-87
2022/11/27 14:47:49;;;;;;;6.82;5.57;;;;;;;;;;5094046;28;20073;-86